This is the latest recevied weather packets stored in our database for station/object NK0Z-13. If no packets are shown the sender has not sent any weather packets the latest 1 day(s).
| Time | Temp. | Humidity | Pressure | Rain* | Wind** | Luminosity | Snow |
|---|---|---|---|---|---|---|---|
| 1778093620 | 13.33° C | 53% | 1021.4 hPa | 0 mm | - | 1058 W/m² | - |
| 1778093014 | 13.33° C | 53% | 1021.7 hPa | 0 mm | - | 277 W/m² | - |
| 1778091813 | 12.78° C | 58% | 1021.5 hPa | 0 mm | - | 534 W/m² | - |
| 1778089407 | 12.78° C | 52% | 1021.9 hPa | 0 mm | - | 441 W/m² | - |
| 1778088807 | 12.78° C | 55% | 1022.1 hPa | 0 mm | - | 666 W/m² | - |
| 1778087607 | 12.22° C | 64% | 1022.2 hPa | 0 mm | - | 527 W/m² | - |
| 1778087006 | 12.22° C | 65% | 1022.2 hPa | 0 mm | - | 1014 W/m² | - |
| 1778086403 | 11.67° C | 66% | 1022.1 hPa | 0 mm | - | 549 W/m² | - |
| 1778081673 | 8.89° C | 76% | 1022.1 hPa | 0 mm | - | 217 W/m² | - |
| 1778081073 | 8.89° C | 79% | 1022.2 hPa | 0 mm | - | 177 W/m² | - |
| 1778079267 | 8.33° C | 82% | 1022 hPa | 0 mm | - | 117 W/m² | - |
| 1778076248 | 7.78° C | 86% | 1021.6 hPa | 0 mm | - | 99 W/m² | - |
| 1778075648 | 7.78° C | 88% | 1021.6 hPa | 0 mm | - | 80 W/m² | - |
| 1778075046 | 7.78° C | 91% | 1021.1 hPa | 0 mm | - | 94 W/m² | - |
| 1778073845 | 7.22° C | 94% | 1021.7 hPa | 0 mm | - | 56 W/m² | - |
| 1778072644 | 7.22° C | 96% | 1021.4 hPa | 0 mm | - | 50 W/m² | - |
| 1778072040 | 6.67° C | 96% | 1021.2 hPa | 0 mm | - | 43 W/m² | - |
| 1778070236 | 6.67° C | 97% | 1020.7 hPa | 0 mm | - | 28 W/m² | - |
| 1778067828 | 6.67° C | 96% | 1019.7 hPa | 0 mm | - | 4 W/m² | - |
| 1778067224 | 6.67° C | 96% | 1019.4 hPa | 0 mm | - | 3 W/m² | - |
| 1778066024 | 6.67° C | 96% | 1019 hPa | 0 mm | - | 0 W/m² | - |
| 1778065424 | 6.67° C | 96% | 1019.1 hPa | 0 mm | - | 0 W/m² | - |
| 1778064823 | 6.67° C | 95% | 1019 hPa | 0 mm | - | 0 W/m² | - |
| 1778064218 | 6.67° C | 95% | 1018.9 hPa | 0 mm | - | 0 W/m² | - |
| 1778063619 | 6.67° C | 95% | 1019 hPa | 0 mm | - | 0 W/m² | - |
* Rain latest hour (hover to see other rain measurements)
** Current wind speed in m/s (hover to see current wind gust speed)